sensor_id;sensor_type;location;lat;lon;timestamp;pressure;altitude;pressure_sealevel;temperature;humidity
74895;BME280;63447;49.446;8.666;2023-04-24T00:00:27;99351.53;;;11.62;76.99
74895;BME280;63447;49.446;8.666;2023-04-24T00:02:53;99355.09;;;11.62;75.97
74895;BME280;63447;49.446;8.666;2023-04-24T00:05:22;99337.78;;;11.65;75.12
74895;BME280;63447;49.446;8.666;2023-04-24T00:07:50;99333.53;;;11.71;75.45
74895;BME280;63447;49.446;8.666;2023-04-24T00:10:18;99345.63;;;11.63;75.32
74895;BME280;63447;49.446;8.666;2023-04-24T00:12:44;99346.72;;;11.59;75.77
74895;BME280;63447;49.446;8.666;2023-04-24T00:15:10;99350.72;;;11.61;76.00
74895;BME280;63447;49.446;8.666;2023-04-24T00:17:36;99349.03;;;11.56;76.17
74895;BME280;63447;49.446;8.666;2023-04-24T00:20:01;99343.59;;;11.60;76.16
74895;BME280;63447;49.446;8.666;2023-04-24T00:22:30;99343.53;;;11.56;75.93
74895;BME280;63447;49.446;8.666;2023-04-24T00:24:56;99349.13;;;11.60;76.18
74895;BME280;63447;49.446;8.666;2023-04-24T00:27:24;99340.41;;;11.58;76.05
74895;BME280;63447;49.446;8.666;2023-04-24T00:29:49;99316.53;;;11.50;76.14
74895;BME280;63447;49.446;8.666;2023-04-24T00:32:17;99337.06;;;11.68;75.78
74895;BME280;63447;49.446;8.666;2023-04-24T00:34:42;99332.41;;;11.53;75.98
74895;BME280;63447;49.446;8.666;2023-04-24T00:37:08;99336.38;;;11.55;76.25
74895;BME280;63447;49.446;8.666;2023-04-24T00:39:36;99331.31;;;11.57;76.55
74895;BME280;63447;49.446;8.666;2023-04-24T00:42:01;99336.53;;;11.63;76.61
74895;BME280;63447;49.446;8.666;2023-04-24T00:44:27;99328.25;;;11.82;75.46
74895;BME280;63447;49.446;8.666;2023-04-24T00:46:54;99314.06;;;11.64;74.78
74895;BME280;63447;49.446;8.666;2023-04-24T00:49:23;99344.03;;;11.81;75.32
74895;BME280;63447;49.446;8.666;2023-04-24T00:51:49;99345.47;;;11.75;75.25
74895;BME280;63447;49.446;8.666;2023-04-24T00:54:16;99349.84;;;11.96;74.53
74895;BME280;63447;49.446;8.666;2023-04-24T00:56:42;99341.78;;;11.68;75.58
74895;BME280;63447;49.446;8.666;2023-04-24T00:59:09;99347.97;;;11.61;76.31
74895;BME280;63447;49.446;8.666;2023-04-24T01:01:35;99346.00;;;11.62;76.44
74895;BME280;63447;49.446;8.666;2023-04-24T01:04:07;99345.63;;;11.63;76.08
74895;BME280;63447;49.446;8.666;2023-04-24T01:06:33;99338.22;;;11.67;76.22
74895;BME280;63447;49.446;8.666;2023-04-24T01:08:59;99345.63;;;11.63;76.41
74895;BME280;63447;49.446;8.666;2023-04-24T01:11:25;99345.91;;;11.58;76.42
74895;BME280;63447;49.446;8.666;2023-04-24T01:13:51;99347.97;;;11.61;76.10
74895;BME280;63447;49.446;8.666;2023-04-24T01:16:17;99341.91;;;11.55;76.98
74895;BME280;63447;49.446;8.666;2023-04-24T01:18:48;99347.53;;;11.59;76.52
74895;BME280;63447;49.446;8.666;2023-04-24T01:21:15;99324.97;;;11.57;76.43
74895;BME280;63447;49.446;8.666;2023-04-24T01:23:43;99327.59;;;11.50;75.95
74895;BME280;63447;49.446;8.666;2023-04-24T01:26:08;99329.78;;;11.60;76.20
74895;BME280;63447;49.446;8.666;2023-04-24T01:28:33;99335.22;;;11.56;76.57
74895;BME280;63447;49.446;8.666;2023-04-24T01:30:59;99325.63;;;11.70;75.65
74895;BME280;63447;49.446;8.666;2023-04-24T01:33:25;99335.50;;;11.71;75.41
74895;BME280;63447;49.446;8.666;2023-04-24T01:35:51;99336.03;;;11.76;75.21
74895;BME280;63447;49.446;8.666;2023-04-24T01:38:16;99332.25;;;11.65;76.15
74895;BME280;63447;49.446;8.666;2023-04-24T01:40:41;99329.06;;;11.63;76.03
74895;BME280;63447;49.446;8.666;2023-04-24T01:43:07;99323.91;;;11.62;75.91
74895;BME280;63447;49.446;8.666;2023-04-24T01:45:32;99332.41;;;11.53;76.57
74895;BME280;63447;49.446;8.666;2023-04-24T01:47:58;99318.06;;;11.47;77.26
74895;BME280;63447;49.446;8.666;2023-04-24T01:50:26;99312.09;;;11.45;76.39
74895;BME280;63447;49.446;8.666;2023-04-24T01:52:51;99324.41;;;11.67;75.69
74895;BME280;63447;49.446;8.666;2023-04-24T01:55:19;99313.84;;;11.53;76.56
74895;BME280;63447;49.446;8.666;2023-04-24T01:57:47;99321.78;;;11.55;76.39
74895;BME280;63447;49.446;8.666;2023-04-24T02:00:13;99316.69;;;11.57;76.98
74895;BME280;63447;49.446;8.666;2023-04-24T02:02:40;99317.84;;;11.56;76.15
74895;BME280;63447;49.446;8.666;2023-04-24T02:05:10;99323.81;;;11.58;76.62
74895;BME280;63447;49.446;8.666;2023-04-24T02:07:38;99319.47;;;11.57;76.76
74895;BME280;63447;49.446;8.666;2023-04-24T02:10:04;99299.75;;;11.59;75.79
74895;BME280;63447;49.446;8.666;2023-04-24T02:12:30;99312.03;;;11.61;76.31
74895;BME280;63447;49.446;8.666;2023-04-24T02:14:55;99303.59;;;11.54;76.35
74895;BME280;63447;49.446;8.666;2023-04-24T02:17:20;99302.16;;;11.60;75.61
74895;BME280;63447;49.446;8.666;2023-04-24T02:19:48;99306.81;;;11.56;76.52
74895;BME280;63447;49.446;8.666;2023-04-24T02:22:14;99295.09;;;11.43;76.31
74895;BME280;63447;49.446;8.666;2023-04-24T02:24:39;99309.28;;;11.61;76.06
74895;BME280;63447;49.446;8.666;2023-04-24T02:27:07;99307.25;;;11.58;75.81
74895;BME280;63447;49.446;8.666;2023-04-24T02:29:35;99308.69;;;11.52;76.55
74895;BME280;63447;49.446;8.666;2023-04-24T02:32:00;99288.13;;;11.49;75.95
74895;BME280;63447;49.446;8.666;2023-04-24T02:34:25;99271.78;;;11.21;76.30
74895;BME280;63447;49.446;8.666;2023-04-24T02:36:51;99291.13;;;11.41;76.55
74895;BME280;63447;49.446;8.666;2023-04-24T02:39:20;99306.28;;;11.50;76.62
74895;BME280;63447;49.446;8.666;2023-04-24T02:41:48;99305.28;;;11.39;77.13
74895;BME280;63447;49.446;8.666;2023-04-24T02:44:13;99290.00;;;11.26;77.06
74895;BME280;63447;49.446;8.666;2023-04-24T02:46:43;99304.84;;;11.37;77.66
74895;BME280;63447;49.446;8.666;2023-04-24T02:49:09;99281.66;;;11.22;77.14
74895;BME280;63447;49.446;8.666;2023-04-24T02:51:39;99309.41;;;11.49;76.96
74895;BME280;63447;49.446;8.666;2023-04-24T02:54:08;99302.16;;;11.41;77.08
74895;BME280;63447;49.446;8.666;2023-04-24T02:56:35;99309.50;;;11.33;77.73
74895;BME280;63447;49.446;8.666;2023-04-24T02:59:03;99311.31;;;11.45;77.16
74895;BME280;63447;49.446;8.666;2023-04-24T03:01:28;99313.66;;;11.43;77.40
74895;BME280;63447;49.446;8.666;2023-04-24T03:03:54;99327.22;;;11.32;78.17
74895;BME280;63447;49.446;8.666;2023-04-24T03:06:19;99343.81;;;11.32;78.43
74895;BME280;63447;49.446;8.666;2023-04-24T03:08:46;99347.72;;;11.31;79.61
74895;BME280;63447;49.446;8.666;2023-04-24T03:11:11;99368.66;;;11.32;81.75
74895;BME280;63447;49.446;8.666;2023-04-24T03:13:39;99371.47;;;11.16;82.99
74895;BME280;63447;49.446;8.666;2023-04-24T03:16:06;99372.78;;;10.87;81.75
74895;BME280;63447;49.446;8.666;2023-04-24T03:18:32;99382.84;;;10.64;81.60
74895;BME280;63447;49.446;8.666;2023-04-24T03:21:00;99379.91;;;10.73;82.10
74895;BME280;63447;49.446;8.666;2023-04-24T03:23:28;99393.50;;;10.66;79.25
74895;BME280;63447;49.446;8.666;2023-04-24T03:25:53;99387.63;;;10.67;79.10
74895;BME280;63447;49.446;8.666;2023-04-24T03:28:19;99383.63;;;10.49;78.67
74895;BME280;63447;49.446;8.666;2023-04-24T03:30:45;99387.66;;;10.51;78.91
74895;BME280;63447;49.446;8.666;2023-04-24T03:33:10;99381.13;;;10.44;79.70
74895;BME280;63447;49.446;8.666;2023-04-24T03:35:38;99362.94;;;10.39;81.90
74895;BME280;63447;49.446;8.666;2023-04-24T03:38:03;99375.00;;;10.50;81.32
74895;BME280;63447;49.446;8.666;2023-04-24T03:40:29;99362.56;;;10.57;81.86
74895;BME280;63447;49.446;8.666;2023-04-24T03:42:55;99355.69;;;10.50;80.68
74895;BME280;63447;49.446;8.666;2023-04-24T03:45:20;99378.81;;;10.30;82.60
74895;BME280;63447;49.446;8.666;2023-04-24T03:47:46;99355.41;;;10.40;84.98
74895;BME280;63447;49.446;8.666;2023-04-24T03:50:11;99364.97;;;10.58;84.36
74895;BME280;63447;49.446;8.666;2023-04-24T03:52:36;99377.84;;;10.70;83.36
74895;BME280;63447;49.446;8.666;2023-04-24T03:55:04;99382.66;;;10.73;81.88
74895;BME280;63447;49.446;8.666;2023-04-24T03:57:33;99400.69;;;10.23;84.80
74895;BME280;63447;49.446;8.666;2023-04-24T03:59:58;99388.81;;;10.07;84.61
74895;BME280;63447;49.446;8.666;2023-04-24T04:02:26;99400.69;;;9.95;84.90
74895;BME280;63447;49.446;8.666;2023-04-24T04:04:51;99395.34;;;9.86;85.26
74895;BME280;63447;49.446;8.666;2023-04-24T04:07:19;99387.91;;;9.75;86.20
74895;BME280;63447;49.446;8.666;2023-04-24T04:09:47;99419.34;;;9.86;86.38
74895;BME280;63447;49.446;8.666;2023-04-24T04:12:12;99408.13;;;9.67;86.28
74895;BME280;63447;49.446;8.666;2023-04-24T04:14:37;99422.28;;;9.93;86.16
74895;BME280;63447;49.446;8.666;2023-04-24T04:17:03;99423.28;;;10.01;85.78
74895;BME280;63447;49.446;8.666;2023-04-24T04:19:28;99428.78;;;10.01;84.62
74895;BME280;63447;49.446;8.666;2023-04-24T04:21:53;99434.50;;;10.08;85.37
74895;BME280;63447;49.446;8.666;2023-04-24T04:24:21;99417.66;;;9.97;84.86
74895;BME280;63447;49.446;8.666;2023-04-24T04:26:47;99445.19;;;10.09;83.40
74895;BME280;63447;49.446;8.666;2023-04-24T04:29:16;99443.31;;;10.13;84.50
74895;BME280;63447;49.446;8.666;2023-04-24T04:31:41;99446.44;;;10.12;83.16
74895;BME280;63447;49.446;8.666;2023-04-24T04:34:09;99441.63;;;10.09;84.79
74895;BME280;63447;49.446;8.666;2023-04-24T04:36:37;99451.41;;;10.06;85.10
74895;BME280;63447;49.446;8.666;2023-04-24T04:39:05;99451.84;;;10.08;85.51
74895;BME280;63447;49.446;8.666;2023-04-24T04:41:31;99460.59;;;9.98;84.26
74895;BME280;63447;49.446;8.666;2023-04-24T04:43:56;99438.66;;;9.74;83.44
74895;BME280;63447;49.446;8.666;2023-04-24T04:46:26;99456.84;;;9.91;83.35
74895;BME280;63447;49.446;8.666;2023-04-24T04:48:53;99467.38;;;10.01;81.87
74895;BME280;63447;49.446;8.666;2023-04-24T04:51:18;99476.91;;;10.03;82.12
74895;BME280;63447;49.446;8.666;2023-04-24T04:53:44;99487.94;;;10.03;82.56
74895;BME280;63447;49.446;8.666;2023-04-24T04:56:11;99493.13;;;9.93;82.37
74895;BME280;63447;49.446;8.666;2023-04-24T04:58:39;99472.75;;;9.69;82.07
74895;BME280;63447;49.446;8.666;2023-04-24T05:01:07;99484.22;;;9.83;83.65
74895;BME280;63447;49.446;8.666;2023-04-24T05:03:33;99482.78;;;9.90;84.18
74895;BME280;63447;49.446;8.666;2023-04-24T05:05:58;99484.41;;;9.91;84.45
74895;BME280;63447;49.446;8.666;2023-04-24T05:08:28;99482.28;;;9.72;83.92
74895;BME280;63447;49.446;8.666;2023-04-24T05:10:54;99486.66;;;9.61;83.87
74895;BME280;63447;49.446;8.666;2023-04-24T05:13:22;99473.81;;;9.40;83.18
74895;BME280;63447;49.446;8.666;2023-04-24T05:15:49;99495.00;;;9.76;84.47
74895;BME280;63447;49.446;8.666;2023-04-24T05:18:15;99446.28;;;9.52;83.34
74895;BME280;63447;49.446;8.666;2023-04-24T05:20:43;99499.84;;;9.67;83.22
74895;BME280;63447;49.446;8.666;2023-04-24T05:23:11;99497.06;;;9.79;83.11
74895;BME280;63447;49.446;8.666;2023-04-24T05:25:36;99495.34;;;9.63;82.57
74895;BME280;63447;49.446;8.666;2023-04-24T05:28:03;99474.34;;;9.70;82.44
74895;BME280;63447;49.446;8.666;2023-04-24T05:30:29;99488.00;;;9.67;82.59
74895;BME280;63447;49.446;8.666;2023-04-24T05:32:57;99515.78;;;9.86;83.53
74895;BME280;63447;49.446;8.666;2023-04-24T05:35:22;99489.59;;;9.80;81.44
74895;BME280;63447;49.446;8.666;2023-04-24T05:37:47;99512.84;;;9.95;81.08
74895;BME280;63447;49.446;8.666;2023-04-24T05:40:13;99510.19;;;10.10;82.07
74895;BME280;63447;49.446;8.666;2023-04-24T05:42:39;99518.44;;;10.23;81.99
74895;BME280;63447;49.446;8.666;2023-04-24T05:45:05;99521.69;;;10.00;81.35
74895;BME280;63447;49.446;8.666;2023-04-24T05:47:30;99529.72;;;10.05;80.94
74895;BME280;63447;49.446;8.666;2023-04-24T05:49:56;99519.94;;;10.20;80.14
74895;BME280;63447;49.446;8.666;2023-04-24T05:52:21;99509.47;;;10.13;79.64
74895;BME280;63447;49.446;8.666;2023-04-24T05:54:52;99538.88;;;10.22;78.17
74895;BME280;63447;49.446;8.666;2023-04-24T05:57:17;99512.31;;;10.29;78.90
74895;BME280;63447;49.446;8.666;2023-04-24T05:59:45;99504.53;;;10.19;78.92
74895;BME280;63447;49.446;8.666;2023-04-24T06:02:10;99540.44;;;10.35;76.00
74895;BME280;63447;49.446;8.666;2023-04-24T06:04:40;99526.53;;;9.91;75.71
74895;BME280;63447;49.446;8.666;2023-04-24T06:07:06;99533.75;;;10.08;78.25
74895;BME280;63447;49.446;8.666;2023-04-24T06:09:31;99541.03;;;10.16;78.03
74895;BME280;63447;49.446;8.666;2023-04-24T06:11:57;99543.16;;;10.07;78.54
74895;BME280;63447;49.446;8.666;2023-04-24T06:14:25;99550.03;;;10.13;77.68
74895;BME280;63447;49.446;8.666;2023-04-24T06:16:52;99545.88;;;10.19;78.04
74895;BME280;63447;49.446;8.666;2023-04-24T06:19:22;99556.81;;;10.03;78.36
74895;BME280;63447;49.446;8.666;2023-04-24T06:21:47;99565.31;;;9.98;77.54
74895;BME280;63447;49.446;8.666;2023-04-24T06:24:14;99565.44;;;9.90;79.56
74895;BME280;63447;49.446;8.666;2023-04-24T06:26:41;99529.78;;;9.69;79.88
74895;BME280;63447;49.446;8.666;2023-04-24T06:29:06;99549.59;;;10.11;78.73
74895;BME280;63447;49.446;8.666;2023-04-24T06:31:32;99549.47;;;10.07;78.98
74895;BME280;63447;49.446;8.666;2023-04-24T06:34:02;99548.50;;;9.75;79.38
74895;BME280;63447;49.446;8.666;2023-04-24T06:36:28;99563.03;;;9.88;81.01
74895;BME280;63447;49.446;8.666;2023-04-24T06:38:53;99570.50;;;10.00;80.35
74895;BME280;63447;49.446;8.666;2023-04-24T06:41:19;99575.09;;;10.08;79.86
74895;BME280;63447;49.446;8.666;2023-04-24T06:43:47;99552.13;;;10.04;78.52
74895;BME280;63447;49.446;8.666;2023-04-24T06:46:12;99553.03;;;10.08;77.15
74895;BME280;63447;49.446;8.666;2023-04-24T06:48:39;99560.13;;;10.21;76.86
74895;BME280;63447;49.446;8.666;2023-04-24T06:51:04;99528.94;;;9.93;76.51
74895;BME280;63447;49.446;8.666;2023-04-24T06:53:30;99557.38;;;10.21;76.57
74895;BME280;63447;49.446;8.666;2023-04-24T06:55:57;99562.22;;;10.12;76.27
74895;BME280;63447;49.446;8.666;2023-04-24T06:58:25;99559.59;;;10.03;75.71
74895;BME280;63447;49.446;8.666;2023-04-24T07:00:51;99565.69;;;9.97;75.77
74895;BME280;63447;49.446;8.666;2023-04-24T07:03:16;99567.91;;;9.79;76.05
74895;BME280;63447;49.446;8.666;2023-04-24T07:05:41;99599.13;;;9.83;77.57
74895;BME280;63447;49.446;8.666;2023-04-24T07:08:10;99594.88;;;9.73;77.59
74895;BME280;63447;49.446;8.666;2023-04-24T07:10:36;99587.88;;;9.51;80.72
74895;BME280;63447;49.446;8.666;2023-04-24T07:13:04;99602.22;;;9.57;80.23
74895;BME280;63447;49.446;8.666;2023-04-24T07:15:29;99600.94;;;9.67;78.09
74895;BME280;63447;49.446;8.666;2023-04-24T07:17:55;99603.59;;;9.75;75.46
74895;BME280;63447;49.446;8.666;2023-04-24T07:20:21;99601.97;;;9.74;75.06
74895;BME280;63447;49.446;8.666;2023-04-24T07:22:46;99608.63;;;9.73;77.25
74895;BME280;63447;49.446;8.666;2023-04-24T07:25:13;99617.81;;;9.77;74.58
74895;BME280;63447;49.446;8.666;2023-04-24T07:27:38;99601.28;;;9.65;73.76
74895;BME280;63447;49.446;8.666;2023-04-24T07:30:04;99630.91;;;9.93;74.06
74895;BME280;63447;49.446;8.666;2023-04-24T07:32:33;99613.22;;;9.69;73.78
74895;BME280;63447;49.446;8.666;2023-04-24T07:34:58;99634.69;;;10.00;72.75
74895;BME280;63447;49.446;8.666;2023-04-24T07:37:23;99621.81;;;9.92;71.80
74895;BME280;63447;49.446;8.666;2023-04-24T07:39:51;99620.78;;;9.97;73.56
74895;BME280;63447;49.446;8.666;2023-04-24T07:42:17;99643.19;;;9.95;73.87
74895;BME280;63447;49.446;8.666;2023-04-24T07:44:42;99635.03;;;9.99;73.88
74895;BME280;63447;49.446;8.666;2023-04-24T07:47:08;99634.47;;;10.05;73.53
74895;BME280;63447;49.446;8.666;2023-04-24T07:49:33;99636.97;;;10.10;72.26
74895;BME280;63447;49.446;8.666;2023-04-24T07:52:00;99645.13;;;10.07;72.95
74895;BME280;63447;49.446;8.666;2023-04-24T07:54:27;99644.81;;;9.84;74.22
74895;BME280;63447;49.446;8.666;2023-04-24T07:56:53;99635.50;;;9.76;73.30
74895;BME280;63447;49.446;8.666;2023-04-24T07:59:21;99630.78;;;9.89;74.12
74895;BME280;63447;49.446;8.666;2023-04-24T08:01:46;99638.25;;;9.88;74.19
74895;BME280;63447;49.446;8.666;2023-04-24T08:04:12;99630.91;;;10.05;73.98
74895;BME280;63447;49.446;8.666;2023-04-24T08:06:37;99627.31;;;10.29;73.24
74895;BME280;63447;49.446;8.666;2023-04-24T08:09:02;99610.66;;;10.37;71.71
74895;BME280;63447;49.446;8.666;2023-04-24T08:11:28;99644.59;;;10.53;69.28
74895;BME280;63447;49.446;8.666;2023-04-24T08:13:53;99644.72;;;10.85;70.81
74895;BME280;63447;49.446;8.666;2023-04-24T08:16:22;99637.25;;;11.29;70.32
74895;BME280;63447;49.446;8.666;2023-04-24T08:18:50;99645.22;;;11.18;68.88
74895;BME280;63447;49.446;8.666;2023-04-24T08:21:15;99640.34;;;11.28;69.61
74895;BME280;63447;49.446;8.666;2023-04-24T08:23:44;99652.81;;;10.66;69.74
74895;BME280;63447;49.446;8.666;2023-04-24T08:26:14;99664.31;;;10.68;71.21
74895;BME280;63447;49.446;8.666;2023-04-24T08:28:42;99647.28;;;10.78;69.87
74895;BME280;63447;49.446;8.666;2023-04-24T08:31:09;99657.16;;;10.79;70.23
74895;BME280;63447;49.446;8.666;2023-04-24T08:33:35;99664.81;;;10.58;71.03
74895;BME280;63447;49.446;8.666;2023-04-24T08:36:04;99648.75;;;10.47;71.27
74895;BME280;63447;49.446;8.666;2023-04-24T08:38:30;99667.63;;;10.73;71.35
74895;BME280;63447;49.446;8.666;2023-04-24T08:40:57;99665.69;;;10.74;70.88
74895;BME280;63447;49.446;8.666;2023-04-24T08:43:23;99660.38;;;10.81;69.97
74895;BME280;63447;49.446;8.666;2023-04-24T08:45:50;99648.28;;;10.85;66.76
74895;BME280;63447;49.446;8.666;2023-04-24T08:48:18;99683.31;;;10.97;62.37
74895;BME280;63447;49.446;8.666;2023-04-24T08:50:45;99677.19;;;11.04;61.70
74895;BME280;63447;49.446;8.666;2023-04-24T08:53:11;99661.78;;;11.03;62.77
74895;BME280;63447;49.446;8.666;2023-04-24T08:55:37;99689.78;;;11.17;64.81
74895;BME280;63447;49.446;8.666;2023-04-24T08:58:03;99688.47;;;10.99;65.93
74895;BME280;63447;49.446;8.666;2023-04-24T09:00:29;99683.31;;;10.97;66.30
74895;BME280;63447;49.446;8.666;2023-04-24T09:02:55;99694.75;;;11.39;66.07
74895;BME280;63447;49.446;8.666;2023-04-24T09:05:23;99702.63;;;11.25;64.17
74895;BME280;63447;49.446;8.666;2023-04-24T09:07:55;99704.31;;;11.30;64.85
74895;BME280;63447;49.446;8.666;2023-04-24T09:10:23;99709.25;;;11.36;65.52
74895;BME280;63447;49.446;8.666;2023-04-24T09:12:50;99692.59;;;11.05;64.96
74895;BME280;63447;49.446;8.666;2023-04-24T09:15:16;99713.88;;;11.32;64.78
74895;BME280;63447;49.446;8.666;2023-04-24T09:17:43;99712.13;;;11.40;62.85
74895;BME280;63447;49.446;8.666;2023-04-24T09:20:09;99717.34;;;11.29;64.35
74895;BME280;63447;49.446;8.666;2023-04-24T09:22:37;99730.09;;;11.06;63.21
74895;BME280;63447;49.446;8.666;2023-04-24T09:25:04;99716.53;;;11.01;64.65
74895;BME280;63447;49.446;8.666;2023-04-24T09:27:31;99722.84;;;11.01;65.84
74895;BME280;63447;49.446;8.666;2023-04-24T09:29:59;99726.22;;;10.95;64.75
74895;BME280;63447;49.446;8.666;2023-04-24T09:32:26;99710.00;;;10.93;65.63
74895;BME280;63447;49.446;8.666;2023-04-24T09:35:14;99715.22;;;10.82;65.06
74895;BME280;63447;49.446;8.666;2023-04-24T09:37:45;99731.66;;;10.79;64.15
74895;BME280;63447;49.446;8.666;2023-04-24T09:40:19;99740.34;;;10.65;64.20
74895;BME280;63447;49.446;8.666;2023-04-24T09:42:46;99736.38;;;10.78;64.57
74895;BME280;63447;49.446;8.666;2023-04-24T09:45:16;99731.84;;;10.98;65.30
74895;BME280;63447;49.446;8.666;2023-04-24T09:47:41;99716.28;;;11.06;63.67
74895;BME280;63447;49.446;8.666;2023-04-24T09:50:14;99729.13;;;11.42;62.13
74895;BME280;63447;49.446;8.666;2023-04-24T09:52:56;99700.16;;;11.36;63.10
74895;BME280;63447;49.446;8.666;2023-04-24T09:55:22;99751.97;;;11.70;62.25
74895;BME280;63447;49.446;8.666;2023-04-24T09:57:58;99753.81;;;11.78;62.43
74895;BME280;63447;49.446;8.666;2023-04-24T10:00:27;99749.22;;;11.70;61.08
74895;BME280;63447;49.446;8.666;2023-04-24T10:02:59;99751.59;;;11.56;61.05
74895;BME280;63447;49.446;8.666;2023-04-24T10:05:29;99753.34;;;11.33;61.41
74895;BME280;63447;49.446;8.666;2023-04-24T10:07:57;99735.72;;;11.09;61.24
74895;BME280;63447;49.446;8.666;2023-04-24T10:10:23;99733.91;;;11.01;61.33
74895;BME280;63447;49.446;8.666;2023-04-24T10:12:48;99730.94;;;10.94;62.14
74895;BME280;63447;49.446;8.666;2023-04-24T10:15:16;99754.88;;;11.18;62.75
74895;BME280;63447;49.446;8.666;2023-04-24T10:17:47;99755.03;;;11.09;63.67
74895;BME280;63447;49.446;8.666;2023-04-24T10:20:18;99750.31;;;11.10;64.05
74895;BME280;63447;49.446;8.666;2023-04-24T10:22:45;99764.88;;;11.22;64.04
74895;BME280;63447;49.446;8.666;2023-04-24T10:25:16;99725.81;;;11.08;62.76
74895;BME280;63447;49.446;8.666;2023-04-24T10:27:41;99765.50;;;11.16;63.22
74895;BME280;63447;49.446;8.666;2023-04-24T10:30:07;99779.31;;;11.16;62.78
74895;BME280;63447;49.446;8.666;2023-04-24T10:32:33;99776.34;;;10.97;63.26
74895;BME280;63447;49.446;8.666;2023-04-24T10:34:58;99780.31;;;10.83;63.72
74895;BME280;63447;49.446;8.666;2023-04-24T10:37:26;99738.50;;;10.57;63.15
74895;BME280;63447;49.446;8.666;2023-04-24T10:39:55;99796.28;;;10.90;64.67
74895;BME280;63447;49.446;8.666;2023-04-24T10:42:29;99774.19;;;10.90;65.22
74895;BME280;63447;49.446;8.666;2023-04-24T10:44:57;99788.88;;;11.06;64.75
74895;BME280;63447;49.446;8.666;2023-04-24T10:47:23;99787.81;;;11.11;65.88
74895;BME280;63447;49.446;8.666;2023-04-24T10:49:50;99803.06;;;11.33;65.71
74895;BME280;63447;49.446;8.666;2023-04-24T10:52:16;99780.63;;;11.22;64.64
74895;BME280;63447;49.446;8.666;2023-04-24T10:54:45;99800.28;;;11.61;63.64
74895;BME280;63447;49.446;8.666;2023-04-24T10:59:50;99809.53;;;11.80;61.66
74895;BME280;63447;49.446;8.666;2023-04-24T11:02:16;99809.03;;;11.91;61.40
74895;BME280;63447;49.446;8.666;2023-04-24T11:04:42;99809.59;;;11.68;63.30
74895;BME280;63447;49.446;8.666;2023-04-24T11:07:09;99809.84;;;12.07;60.77
74895;BME280;63447;49.446;8.666;2023-04-24T11:09:35;99803.88;;;12.20;59.48
74895;BME280;63447;49.446;8.666;2023-04-24T11:12:06;99808.69;;;12.23;59.91
74895;BME280;63447;49.446;8.666;2023-04-24T11:20:01;99765.06;;;11.85;61.79
74895;BME280;63447;49.446;8.666;2023-04-24T11:22:28;99793.88;;;12.00;60.67
74895;BME280;63447;49.446;8.666;2023-04-24T11:24:59;99817.28;;;12.18;60.44
74895;BME280;63447;49.446;8.666;2023-04-24T11:27:31;99828.50;;;12.26;60.53
74895;BME280;63447;49.446;8.666;2023-04-24T11:37:38;99835.13;;;12.21;60.32
74895;BME280;63447;49.446;8.666;2023-04-24T11:40:06;99827.78;;;12.13;59.96
74895;BME280;63447;49.446;8.666;2023-04-24T11:42:39;99822.69;;;12.31;60.29
74895;BME280;63447;49.446;8.666;2023-04-24T11:45:10;99835.72;;;12.30;61.11
74895;BME280;63447;49.446;8.666;2023-04-24T11:47:36;99823.75;;;12.57;61.22
74895;BME280;63447;49.446;8.666;2023-04-24T11:50:09;99819.66;;;12.51;58.29
74895;BME280;63447;49.446;8.666;2023-04-24T11:52:38;99815.84;;;12.40;59.32
74895;BME280;63447;49.446;8.666;2023-04-24T11:55:07;99804.38;;;12.57;58.93
74895;BME280;63447;49.446;8.666;2023-04-24T11:57:35;99820.81;;;12.66;57.26
74895;BME280;63447;49.446;8.666;2023-04-24T12:00:02;99825.09;;;12.64;57.03
74895;BME280;63447;49.446;8.666;2023-04-24T12:02:29;99824.31;;;12.16;55.63
74895;BME280;63447;49.446;8.666;2023-04-24T12:04:55;99819.69;;;12.20;56.69
74895;BME280;63447;49.446;8.666;2023-04-24T12:07:22;99820.91;;;12.07;57.33
74895;BME280;63447;49.446;8.666;2023-04-24T12:09:55;99781.16;;;11.68;58.00
74895;BME280;63447;49.446;8.666;2023-04-24T12:12:25;99819.28;;;11.90;57.37
74895;BME280;63447;49.446;8.666;2023-04-24T12:14:55;99819.09;;;11.99;58.06
74895;BME280;63447;49.446;8.666;2023-04-24T12:17:26;99817.25;;;12.03;56.97
74895;BME280;63447;49.446;8.666;2023-04-24T12:20:01;99815.28;;;11.87;59.40
74895;BME280;63447;49.446;8.666;2023-04-24T12:22:28;99836.84;;;11.98;59.07
74895;BME280;63447;49.446;8.666;2023-04-24T12:24:58;99813.69;;;11.74;60.27
74895;BME280;63447;49.446;8.666;2023-04-24T12:27:28;99822.16;;;11.94;58.79
74895;BME280;63447;49.446;8.666;2023-04-24T12:29:56;99836.69;;;11.91;58.33
74895;BME280;63447;49.446;8.666;2023-04-24T12:32:22;99838.41;;;12.42;58.56
74895;BME280;63447;49.446;8.666;2023-04-24T12:34:49;99811.28;;;12.32;56.87
74895;BME280;63447;49.446;8.666;2023-04-24T12:37:15;99811.19;;;13.30;55.91
74895;BME280;63447;49.446;8.666;2023-04-24T12:40:04;99823.22;;;13.76;54.92
74895;BME280;63447;49.446;8.666;2023-04-24T12:42:34;99824.03;;;14.42;53.33
74895;BME280;63447;49.446;8.666;2023-04-24T12:45:05;99819.31;;;14.69;52.22
74895;BME280;63447;49.446;8.666;2023-04-24T12:47:34;99816.97;;;14.02;52.17
74895;BME280;63447;49.446;8.666;2023-04-24T12:50:02;99824.75;;;14.16;52.76
74895;BME280;63447;49.446;8.666;2023-04-24T12:52:28;99813.78;;;14.23;52.97
74895;BME280;63447;49.446;8.666;2023-04-24T12:54:58;99816.97;;;14.25;51.69
74895;BME280;63447;49.446;8.666;2023-04-24T12:57:26;99808.03;;;14.12;50.97
74895;BME280;63447;49.446;8.666;2023-04-24T12:59:57;99828.16;;;14.29;51.65
74895;BME280;63447;49.446;8.666;2023-04-24T13:02:26;99818.38;;;14.15;52.32
74895;BME280;63447;49.446;8.666;2023-04-24T13:04:52;99810.34;;;13.87;50.75
74895;BME280;63447;49.446;8.666;2023-04-24T13:07:18;99809.91;;;13.85;51.66
74895;BME280;63447;49.446;8.666;2023-04-24T13:09:44;99799.84;;;13.77;51.56
74895;BME280;63447;49.446;8.666;2023-04-24T13:12:10;99797.78;;;13.93;51.26
74895;BME280;63447;49.446;8.666;2023-04-24T13:14:37;99809.38;;;13.76;51.42
74895;BME280;63447;49.446;8.666;2023-04-24T13:17:03;99810.78;;;13.47;52.52